Time;durP1;ratioP1;P1;durP2;ratioP2;P2;SDS_P1;SDS_P2;PMS_P1;PMS_P2;Temp;Humidity;BMP_temperature;BMP_pressure;BME280_temperature;BME280_humidity;BME280_pressure;Samples;Min_cycle;Max_cycle;Signal;HPM_P1;HPM_P2
2022/10/11 00:00:55;;;;;;;4.37;1.30;;;7.00;99.90;;;;;;5074367;28;20249;-77
2022/10/11 00:03:21;;;;;;;6.77;1.87;;;7.00;99.90;;;;;;5074544;28;20249;-77
2022/10/11 00:05:47;;;;;;;9.67;1.40;;;6.90;99.90;;;;;;5056003;28;20541;-77
2022/10/11 00:08:12;;;;;;;4.37;1.23;;;6.90;99.90;;;;;;5074901;28;20205;-77
2022/10/11 00:10:39;;;;;;;4.77;1.50;;;6.90;99.90;;;;;;5074331;28;20571;-77
2022/10/11 00:13:05;;;;;;;9.37;1.80;;;6.80;99.90;;;;;;5056128;28;20185;-77
2022/10/11 00:15:31;;;;;;;7.17;1.63;;;6.70;99.90;;;;;;5056001;28;20179;-77
2022/10/11 00:17:57;;;;;;;4.93;1.30;;;6.80;99.90;;;;;;5074036;28;20252;-77
2022/10/11 00:20:23;;;;;;;6.43;1.80;;;6.70;99.90;;;;;;5077225;28;20191;-77
2022/10/11 00:22:49;;;;;;;6.07;1.30;;;6.70;99.90;;;;;;5078087;28;20175;-77
2022/10/11 00:25:15;;;;;;;6.27;1.50;;;6.80;99.90;;;;;;5078295;28;20540;-78
2022/10/11 00:27:41;;;;;;;4.83;1.90;;;6.60;99.90;;;;;;5077934;28;20630;-77
2022/10/11 00:30:07;;;;;;;7.80;1.70;;;6.70;99.90;;;;;;5078544;28;20191;-77
2022/10/11 00:32:34;;;;;;;4.27;1.53;;;6.60;99.90;;;;;;5060272;28;20213;-77
2022/10/11 00:35:05;;;;;;;6.30;1.77;;;6.60;99.90;;;;;;5059843;28;20660;-77
2022/10/11 00:37:34;;;;;;;6.53;1.50;;;6.50;99.90;;;;;;5078331;28;20167;-77
2022/10/11 00:40:02;;;;;;;8.37;1.67;;;6.50;99.90;;;;;;5077354;28;20676;-77
2022/10/11 00:42:27;;;;;;;6.30;1.53;;;6.50;99.90;;;;;;5077644;28;20171;-77
2022/10/11 00:45:25;;;;;;;5.90;1.33;;;6.40;99.90;;;;;;5059651;28;20690;-77
2022/10/11 00:47:55;;;;;;;6.80;1.70;;;6.30;99.90;;;;;;5077371;28;20182;-77
2022/10/11 00:50:22;;;;;;;9.83;1.77;;;6.30;99.90;;;;;;5077268;28;20198;-77
2022/10/11 00:52:56;;;;;;;6.37;1.60;;;6.30;99.90;;;;;;5077353;28;20232;-77
2022/10/11 00:55:25;;;;;;;6.20;1.50;;;6.30;99.90;;;;;;5077105;28;20163;-77
2022/10/11 00:57:52;;;;;;;5.27;1.57;;;6.30;99.90;;;;;;5077007;28;20222;-77
2022/10/11 01:00:18;;;;;;;8.67;2.00;;;6.20;99.90;;;;;;5059186;28;20206;-77
2022/10/11 01:02:44;;;;;;;8.93;1.70;;;6.20;99.90;;;;;;5059207;28;20185;-77
2022/10/11 01:05:13;;;;;;;11.77;1.87;;;6.20;99.90;;;;;;5058912;28;20242;-77
2022/10/11 01:07:39;;;;;;;4.47;1.70;;;6.20;99.90;;;;;;5076396;28;20179;-76
2022/10/11 01:10:04;;;;;;;7.77;1.87;;;6.20;99.90;;;;;;5076446;28;20214;-77
2022/10/11 01:12:31;;;;;;;6.33;1.70;;;6.10;99.90;;;;;;5058428;28;20183;-77
2022/10/11 01:15:14;;;;;;;5.77;1.63;;;6.20;99.90;;;;;;5075159;28;20178;-77
2022/10/11 01:17:59;;;;;;;6.40;1.63;;;6.10;99.90;;;;;;5058675;28;20251;-76
2022/10/11 01:20:47;;;;;;;14.30;1.73;;;6.10;99.90;;;;;;5076422;28;20290;-77
2022/10/11 01:23:14;;;;;;;8.67;1.80;;;6.10;99.90;;;;;;5076318;28;20585;-77
2022/10/11 01:26:07;;;;;;;3.73;1.57;;;6.10;99.90;;;;;;5075823;28;20163;-76
2022/10/11 01:28:46;;;;;;;7.37;1.60;;;6.00;99.90;;;;;;5058101;28;20198;-77
2022/10/11 01:31:55;;;;;;;5.73;1.83;;;6.10;99.90;;;;;;5074808;28;20194;-77
2022/10/11 01:34:24;;;;;;;6.93;2.40;;;6.00;99.90;;;;;;4994186;28;20718;-77
2022/10/11 01:37:04;;;;;;;9.57;2.33;;;6.00;99.90;;;;;;5065095;28;20656;-77
2022/10/11 01:39:49;;;;;;;10.13;2.57;;;6.00;99.90;;;;;;5075735;28;20187;-77
2022/10/11 01:42:17;;;;;;;13.43;3.07;;;6.00;99.90;;;;;;5075793;28;20223;-77
2022/10/11 01:44:46;;;;;;;11.10;3.27;;;6.00;99.90;;;;;;5075527;28;20172;-77
2022/10/11 01:47:12;;;;;;;13.17;2.57;;;6.00;99.90;;;;;;5057696;28;20617;-77
2022/10/11 01:49:38;;;;;;;8.63;2.97;;;6.00;99.90;;;;;;5075624;28;20377;-77
2022/10/11 01:52:05;;;;;;;7.73;2.90;;;5.90;99.90;;;;;;5075643;28;20261;-77
2022/10/11 01:54:51;;;;;;;12.00;3.60;;;5.90;99.90;;;;;;5076017;28;20660;-77
2022/10/11 01:57:25;;;;;;;11.50;4.03;;;5.90;99.90;;;;;;5075852;28;20617;-77
2022/10/11 02:00:00;;;;;;;9.10;3.40;;;5.90;99.90;;;;;;5057515;28;20204;-78
2022/10/11 02:02:40;;;;;;;11.00;4.00;;;5.90;99.90;;;;;;5075906;28;20193;-77
2022/10/11 02:05:24;;;;;;;12.03;4.13;;;5.90;99.90;;;;;;5075927;28;20179;-78
2022/10/11 02:08:19;;;;;;;7.20;3.00;;;5.80;99.90;;;;;;5078198;28;20601;-77
2022/10/11 02:10:52;;;;;;;12.47;2.87;;;5.80;99.90;;;;;;5061449;28;20573;-77
2022/10/11 02:13:35;;;;;;;9.43;2.87;;;5.80;99.90;;;;;;5062070;28;20598;-76
2022/10/11 02:16:04;;;;;;;10.03;3.37;;;5.80;99.90;;;;;;5079985;28;20204;-77
2022/10/11 02:18:35;;;;;;;6.67;3.20;;;5.70;99.90;;;;;;5078553;28;20229;-77
2022/10/11 02:21:04;;;;;;;7.60;3.03;;;5.70;99.90;;;;;;5078948;28;20199;-77
2022/10/11 02:23:37;;;;;;;10.27;3.63;;;5.70;99.90;;;;;;5077242;28;20190;-77
2022/10/11 02:26:05;;;;;;;6.10;3.33;;;5.80;99.90;;;;;;5078368;28;20656;-77
2022/10/11 02:28:35;;;;;;;6.57;2.93;;;5.60;99.90;;;;;;5077153;28;20266;-77
2022/10/11 02:31:04;;;;;;;7.07;3.20;;;5.60;99.90;;;;;;5077804;28;20650;-77
2022/10/11 02:33:36;;;;;;;8.20;3.63;;;5.50;99.90;;;;;;5059358;28;20224;-77
2022/10/11 02:36:07;;;;;;;9.73;3.13;;;5.60;99.90;;;;;;5056904;28;20610;-77
2022/10/11 02:38:45;;;;;;;8.17;3.17;;;5.60;99.90;;;;;;5073438;28;20232;-77
2022/10/11 02:41:24;;;;;;;9.43;3.27;;;5.50;99.90;;;;;;5054039;28;20215;-77
2022/10/11 02:44:03;;;;;;;9.07;3.40;;;5.50;99.90;;;;;;5054745;28;20182;-77
2022/10/11 02:46:30;;;;;;;10.50;4.20;;;5.50;99.90;;;;;;5070634;28;20179;-77
2022/10/11 02:48:58;;;;;;;9.00;4.20;;;5.50;99.90;;;;;;5051491;28;20187;-77
2022/10/11 02:51:26;;;;;;;9.73;3.90;;;5.50;99.90;;;;;;5050576;28;20672;-78
2022/10/11 02:53:52;;;;;;;8.63;3.63;;;5.50;99.90;;;;;;5064441;28;20250;-77
2022/10/11 02:56:17;;;;;;;10.33;3.93;;;5.50;99.90;;;;;;5053014;28;20176;-77
2022/10/11 02:58:43;;;;;;;7.30;4.03;;;5.50;99.90;;;;;;5054374;28;20554;-77
2022/10/11 03:01:08;;;;;;;6.23;3.60;;;5.50;99.90;;;;;;5054044;28;20278;-77
2022/10/11 03:03:34;;;;;;;8.37;3.67;;;5.50;99.90;;;;;;5053983;28;20190;-76
2022/10/11 03:06:01;;;;;;;9.37;3.27;;;5.50;99.90;;;;;;5056813;28;20655;-77
2022/10/11 03:08:27;;;;;;;8.70;3.53;;;5.50;99.90;;;;;;5072300;28;20232;-77
2022/10/11 03:10:52;;;;;;;8.80;3.57;;;5.40;99.90;;;;;;5056795;28;20199;-77
2022/10/11 03:13:18;;;;;;;12.87;4.00;;;5.40;99.90;;;;;;5073442;28;20589;-77
2022/10/11 03:15:50;;;;;;;9.67;4.27;;;5.40;99.90;;;;;;5073838;28;20192;-77
2022/10/11 03:18:16;;;;;;;9.87;3.93;;;5.40;99.90;;;;;;5051945;28;20199;-77
2022/10/11 03:20:42;;;;;;;9.73;3.87;;;5.40;99.90;;;;;;5053033;28;20219;-77
2022/10/11 03:23:08;;;;;;;8.43;3.53;;;5.40;99.90;;;;;;5048743;28;20185;-77
2022/10/11 03:25:33;;;;;;;11.23;3.87;;;5.40;99.90;;;;;;5052492;28;20241;-77
2022/10/11 03:27:59;;;;;;;13.43;4.00;;;5.30;99.90;;;;;;5038547;28;20641;-77
2022/10/11 03:30:24;;;;;;;10.47;4.90;;;5.30;99.90;;;;;;5056185;28;20206;-76
2022/10/11 03:32:50;;;;;;;9.87;4.60;;;5.30;99.90;;;;;;5073710;28;20262;-77
2022/10/11 03:35:16;;;;;;;10.57;5.13;;;5.30;99.90;;;;;;5073340;28;20613;-77
2022/10/11 03:37:42;;;;;;;8.03;4.63;;;5.30;99.90;;;;;;5072578;28;20210;-77
2022/10/11 03:40:08;;;;;;;14.23;5.50;;;5.30;99.90;;;;;;5060177;28;20681;-77
2022/10/11 03:42:34;;;;;;;10.67;4.83;;;5.20;99.90;;;;;;5053763;28;20172;-78
2022/10/11 03:45:03;;;;;;;9.97;5.43;;;5.20;99.90;;;;;;5054137;28;20184;-77
2022/10/11 03:47:30;;;;;;;10.60;5.03;;;5.20;99.90;;;;;;5035414;28;20656;-77
2022/10/11 03:49:56;;;;;;;8.70;4.60;;;5.20;99.90;;;;;;5072056;28;20202;-78
2022/10/11 03:52:21;;;;;;;9.57;4.60;;;5.20;99.90;;;;;;5073277;28;20186;-77
2022/10/11 03:54:47;;;;;;;10.57;4.47;;;5.20;99.90;;;;;;5071602;28;20205;-77
2022/10/11 03:57:13;;;;;;;10.70;5.13;;;5.10;99.90;;;;;;5055054;28;20335;-77
2022/10/11 03:59:38;;;;;;;11.90;4.80;;;5.20;99.90;;;;;;5051333;28;20215;-77
2022/10/11 04:02:04;;;;;;;8.97;4.57;;;5.10;99.90;;;;;;5053765;28;20282;-78
2022/10/11 04:04:29;;;;;;;15.83;4.90;;;5.10;99.90;;;;;;5067802;28;20185;-77
2022/10/11 04:06:55;;;;;;;11.07;5.10;;;5.10;99.90;;;;;;5055143;28;20293;-77
2022/10/11 04:09:20;;;;;;;9.10;5.50;;;5.10;99.90;;;;;;5060108;28;20187;-77
2022/10/11 04:11:46;;;;;;;7.90;4.40;;;5.10;99.90;;;;;;5052032;28;20219;-77
2022/10/11 04:14:11;;;;;;;11.30;4.53;;;5.10;99.90;;;;;;5046248;28;20597;-77
2022/10/11 04:16:37;;;;;;;9.77;4.33;;;5.10;99.90;;;;;;5073077;28;20193;-76
2022/10/11 04:19:03;;;;;;;8.63;3.93;;;5.00;99.90;;;;;;5049984;28;20203;-77
2022/10/11 04:21:29;;;;;;;8.57;4.30;;;5.00;99.90;;;;;;5066384;28;20634;-76
2022/10/11 04:23:54;;;;;;;9.03;4.07;;;5.00;99.90;;;;;;5066244;28;20175;-76
2022/10/11 04:26:20;;;;;;;7.43;4.10;;;5.00;99.90;;;;;;5071883;28;20672;-78
2022/10/11 04:28:46;;;;;;;11.30;4.57;;;5.00;99.90;;;;;;5058272;28;20198;-78
2022/10/11 04:31:12;;;;;;;10.50;4.53;;;4.90;99.90;;;;;;5076717;28;20230;-78
2022/10/11 04:33:37;;;;;;;9.37;3.93;;;4.90;99.90;;;;;;5077008;28;20178;-78
2022/10/11 04:36:03;;;;;;;14.40;4.87;;;4.90;99.90;;;;;;5075576;28;20193;-78
2022/10/11 04:38:29;;;;;;;9.43;4.57;;;4.90;99.90;;;;;;5075813;28;20289;-78
2022/10/11 04:40:54;;;;;;;9.83;5.40;;;4.90;99.90;;;;;;5057396;28;20225;-78
2022/10/11 04:43:20;;;;;;;8.37;4.37;;;4.90;99.90;;;;;;5074414;28;20175;-77
2022/10/11 04:45:46;;;;;;;11.67;4.30;;;4.80;99.90;;;;;;5055840;28;20202;-77
2022/10/11 04:48:12;;;;;;;7.63;4.10;;;4.80;99.90;;;;;;5073019;28;20179;-77
2022/10/11 04:50:38;;;;;;;14.57;4.87;;;4.80;99.90;;;;;;5054578;28;20577;-77
2022/10/11 04:53:03;;;;;;;12.87;4.83;;;4.80;99.90;;;;;;5072171;28;20266;-77
2022/10/11 04:55:29;;;;;;;11.13;4.50;;;4.80;99.90;;;;;;5072179;28;20217;-76
2022/10/11 04:57:54;;;;;;;8.83;4.83;;;4.70;99.90;;;;;;5072246;28;20289;-77
2022/10/11 05:00:20;;;;;;;6.53;4.03;;;4.70;99.90;;;;;;5072107;28;20195;-77
2022/10/11 05:02:46;;;;;;;8.87;4.37;;;4.70;99.90;;;;;;5072326;28;20729;-76
2022/10/11 05:05:16;;;;;;;8.83;5.10;;;4.70;99.90;;;;;;5055606;28;20233;-76
2022/10/11 05:07:42;;;;;;;8.33;4.63;;;4.70;99.90;;;;;;5075837;28;20670;-76
2022/10/11 05:10:08;;;;;;;11.10;4.80;;;4.70;99.90;;;;;;5057901;28;20198;-78
2022/10/11 05:12:33;;;;;;;10.30;4.20;;;4.70;99.90;;;;;;5077740;28;20300;-78
2022/10/11 05:14:59;;;;;;;9.97;4.53;;;4.60;99.90;;;;;;5077117;28;20179;-79
2022/10/11 05:17:24;;;;;;;7.50;3.73;;;4.60;99.90;;;;;;5058908;28;20171;-78
2022/10/11 05:19:50;;;;;;;11.43;5.40;;;4.60;99.90;;;;;;5076844;28;20324;-78
2022/10/11 05:22:15;;;;;;;12.03;4.57;;;4.50;99.90;;;;;;5077300;28;20183;-78
2022/10/11 05:24:41;;;;;;;10.13;4.77;;;4.50;99.90;;;;;;5059052;28;20191;-78
2022/10/11 05:27:06;;;;;;;12.40;4.30;;;4.50;99.90;;;;;;5076689;28;20236;-77
2022/10/11 05:29:32;;;;;;;9.63;4.17;;;4.40;99.90;;;;;;5058909;28;20175;-78
2022/10/11 05:31:58;;;;;;;7.70;4.33;;;4.40;99.90;;;;;;5059433;28;20590;-78
2022/10/11 05:34:23;;;;;;;12.07;4.63;;;4.40;99.90;;;;;;5076613;28;20560;-78
2022/10/11 05:36:49;;;;;;;15.17;4.80;;;4.40;99.90;;;;;;5076843;28;20234;-78
2022/10/11 05:39:14;;;;;;;13.20;4.50;;;4.30;99.90;;;;;;5076293;28;20221;-78
2022/10/11 05:41:40;;;;;;;10.37;4.47;;;4.30;99.90;;;;;;5077636;28;20679;-78
2022/10/11 05:44:07;;;;;;;13.83;4.73;;;4.20;99.90;;;;;;5076752;28;20219;-78
2022/10/11 05:46:33;;;;;;;12.33;4.13;;;4.20;99.90;;;;;;5076782;28;20170;-78
2022/10/11 05:48:58;;;;;;;7.77;3.43;;;4.20;99.90;;;;;;5058517;28;20170;-78
2022/10/11 05:51:24;;;;;;;11.67;3.80;;;4.20;99.90;;;;;;5076725;28;20256;-78
2022/10/11 05:53:49;;;;;;;8.53;3.67;;;4.10;99.90;;;;;;5077653;28;20175;-79
2022/10/11 05:56:21;;;;;;;11.63;4.37;;;4.10;99.90;;;;;;5059102;28;20182;-78
2022/10/11 05:58:47;;;;;;;8.67;3.53;;;4.10;99.90;;;;;;5076584;28;20726;-78
2022/10/11 06:01:24;;;;;;;12.33;4.03;;;4.10;99.90;;;;;;5076388;28;20275;-79
2022/10/11 06:03:50;;;;;;;13.00;3.53;;;4.10;99.90;;;;;;5076272;28;20234;-78
2022/10/11 06:06:17;;;;;;;12.97;4.10;;;4.10;99.90;;;;;;5076267;28;20191;-79
2022/10/11 06:08:43;;;;;;;5.80;3.57;;;4.00;99.90;;;;;;5058400;28;20242;-78
2022/10/11 06:11:21;;;;;;;9.37;3.57;;;4.00;99.90;;;;;;5058512;28;20198;-79
2022/10/11 06:13:47;;;;;;;7.83;3.80;;;4.00;99.90;;;;;;5076743;28;20524;-78
2022/10/11 06:16:13;;;;;;;9.70;3.90;;;4.00;99.90;;;;;;5059916;28;20281;-77
2022/10/11 06:18:39;;;;;;;8.63;3.30;;;4.00;99.90;;;;;;5058863;28;20289;-78
2022/10/11 06:21:05;;;;;;;9.33;3.90;;;4.10;99.90;;;;;;5076417;28;20195;-78
2022/10/11 06:23:31;;;;;;;7.77;3.83;;;4.00;99.90;;;;;;5076846;28;20171;-78
2022/10/11 06:25:56;;;;;;;7.97;3.77;;;4.10;99.90;;;;;;5058737;28;20193;-79
2022/10/11 06:28:22;;;;;;;13.13;3.43;;;4.10;99.90;;;;;;5076825;28;20166;-78
2022/10/11 06:30:47;;;;;;;12.07;4.20;;;4.10;99.90;;;;;;5076565;28;20221;-80
2022/10/11 06:33:13;;;;;;;8.33;4.17;;;4.10;99.90;;;;;;5077564;28;20175;-79
2022/10/11 06:35:38;;;;;;;8.97;3.60;;;4.20;99.90;;;;;;5077534;28;20177;-78
2022/10/11 06:38:04;;;;;;;10.77;3.97;;;4.20;99.90;;;;;;5058045;28;20279;-79
2022/10/11 06:40:29;;;;;;;8.13;3.30;;;4.20;99.90;;;;;;5057448;28;20302;-80
2022/10/11 06:42:55;;;;;;;10.00;3.77;;;4.20;99.90;;;;;;5058302;28;20194;-79
2022/10/11 06:45:20;;;;;;;9.00;4.03;;;4.20;99.90;;;;;;5078136;28;20213;-80
2022/10/11 06:47:46;;;;;;;9.10;3.77;;;4.20;99.90;;;;;;5078127;28;20178;-79
2022/10/11 06:50:12;;;;;;;7.33;3.47;;;4.20;99.90;;;;;;5076812;28;20193;-79
2022/10/11 06:52:38;;;;;;;6.83;3.90;;;4.20;99.90;;;;;;5080694;28;20171;-80
2022/10/11 06:55:03;;;;;;;8.43;3.63;;;4.30;99.90;;;;;;5065956;28;20660;-79
2022/10/11 06:57:29;;;;;;;13.53;4.53;;;4.30;99.90;;;;;;5075987;28;20179;-80
2022/10/11 06:59:54;;;;;;;8.00;3.60;;;4.40;99.90;;;;;;5076347;28;20191;-80
2022/10/11 07:02:20;;;;;;;11.17;3.57;;;4.30;99.90;;;;;;5059475;28;20171;-80
2022/10/11 07:04:45;;;;;;;7.17;2.97;;;4.40;99.90;;;;;;5077740;28;20178;-80
2022/10/11 07:07:14;;;;;;;11.10;3.70;;;4.50;99.90;;;;;;5058011;28;20176;-80
2022/10/11 07:09:40;;;;;;;9.47;4.20;;;4.50;99.90;;;;;;5075256;28;20722;-79
2022/10/11 07:12:06;;;;;;;8.40;3.50;;;4.50;99.90;;;;;;5057290;28;20178;-80
2022/10/11 07:14:31;;;;;;;8.50;3.30;;;4.60;99.90;;;;;;5075273;28;20522;-80
2022/10/11 07:16:57;;;;;;;7.97;3.30;;;4.60;99.90;;;;;;5075103;28;20175;-79
2022/10/11 07:19:22;;;;;;;8.60;3.90;;;4.70;99.90;;;;;;5075207;28;20201;-80
2022/10/11 07:21:48;;;;;;;11.93;3.47;;;4.70;99.90;;;;;;5074889;28;20179;-80
2022/10/11 07:24:13;;;;;;;8.30;3.90;;;4.80;99.90;;;;;;5057285;28;20182;-80
2022/10/11 07:26:39;;;;;;;10.83;4.50;;;4.80;99.90;;;;;;5058215;28;20181;-79
2022/10/11 07:29:07;;;;;;;14.37;6.00;;;4.90;99.90;;;;;;5060388;28;20244;-79
2022/10/11 07:31:34;;;;;;;12.20;5.23;;;4.90;99.90;;;;;;5059130;28;20199;-80
2022/10/11 07:34:00;;;;;;;8.13;4.83;;;5.00;99.90;;;;;;5061089;28;20194;-78
2022/10/11 07:36:25;;;;;;;11.37;5.43;;;5.10;99.90;;;;;;5075037;28;20629;-79
2022/10/11 07:38:51;;;;;;;16.87;5.63;;;5.20;99.90;;;;;;5076128;28;20194;-79
2022/10/11 07:41:17;;;;;;;9.43;5.60;;;5.20;99.90;;;;;;5057009;28;20289;-80
2022/10/11 07:43:43;;;;;;;17.30;6.67;;;5.40;99.90;;;;;;5075101;28;20641;-79
2022/10/11 07:46:09;;;;;;;11.10;5.50;;;5.50;99.90;;;;;;5057998;28;20202;-80
2022/10/11 07:48:36;;;;;;;16.50;7.40;;;5.50;99.90;;;;;;5057715;28;20201;-80
2022/10/11 07:51:14;;;;;;;11.67;7.10;;;5.70;99.90;;;;;;5057469;28;20294;-80
2022/10/11 07:53:44;;;;;;;12.07;6.97;;;5.70;99.90;;;;;;5074974;28;20167;-80
2022/10/11 07:56:12;;;;;;;11.23;6.43;;;5.90;99.90;;;;;;5056711;28;20210;-80
2022/10/11 07:58:39;;;;;;;17.40;5.83;;;5.90;99.90;;;;;;5057806;28;20194;-80
2022/10/11 08:01:04;;;;;;;10.97;6.17;;;6.00;99.90;;;;;;5056695;28;20579;-80
2022/10/11 08:03:30;;;;;;;9.07;6.17;;;6.10;99.90;;;;;;5075995;28;20254;-80
2022/10/11 08:06:03;;;;;;;14.07;7.07;;;6.10;99.90;;;;;;5076071;28;20544;-80
2022/10/11 08:08:30;;;;;;;18.47;8.30;;;6.20;99.90;;;;;;5076338;28;20182;-80
2022/10/11 08:10:56;;;;;;;20.10;7.60;;;6.30;99.90;;;;;;5058683;28;20225;-80
2022/10/11 08:13:21;;;;;;;21.83;9.37;;;6.50;99.90;;;;;;5075347;28;20645;-80
2022/10/11 08:15:47;;;;;;;22.67;10.10;;;6.60;99.90;;;;;;5074992;28;20167;-80
2022/10/11 08:18:12;;;;;;;24.03;11.00;;;6.70;99.90;;;;;;5057210;28;20252;-80
2022/10/11 08:20:38;;;;;;;19.30;11.93;;;6.80;99.90;;;;;;5058979;28;20206;-79
2022/10/11 08:23:04;;;;;;;26.27;12.23;;;6.90;99.90;;;;;;5067247;28;20265;-80
2022/10/11 08:25:30;;;;;;;23.03;11.80;;;7.00;99.90;;;;;;5080904;28;20205;-80
2022/10/11 08:27:55;;;;;;;22.00;11.57;;;7.10;99.90;;;;;;5078349;28;20171;-79
2022/10/11 08:30:21;;;;;;;18.83;11.43;;;7.20;99.90;;;;;;5076678;28;20233;-79
2022/10/11 08:32:46;;;;;;;24.07;12.13;;;7.30;99.90;;;;;;5076186;28;20171;-79
2022/10/11 08:35:12;;;;;;;25.93;11.53;;;7.40;99.90;;;;;;5075773;28;20185;-79
2022/10/11 08:37:38;;;;;;;23.80;12.87;;;7.50;99.90;;;;;;5075907;28;20245;-79
2022/10/11 08:40:04;;;;;;;24.20;12.97;;;7.70;99.90;;;;;;5059686;28;20263;-79
2022/10/11 08:42:37;;;;;;;25.87;12.53;;;7.80;99.90;;;;;;5079757;28;20175;-79
2022/10/11 08:45:07;;;;;;;26.17;13.60;;;7.90;99.90;;;;;;5080078;28;20163;-80
2022/10/11 08:47:38;;;;;;;29.23;14.37;;;8.00;99.90;;;;;;5061615;28;20604;-79
2022/10/11 08:50:06;;;;;;;30.73;14.50;;;8.10;99.90;;;;;;5080259;28;20191;-80
2022/10/11 08:52:37;;;;;;;23.23;14.67;;;8.20;99.90;;;;;;5079657;28;20652;-79
2022/10/11 08:55:06;;;;;;;24.57;13.77;;;8.30;99.90;;;;;;5061257;28;20648;-80
2022/10/11 08:57:35;;;;;;;31.17;14.90;;;8.50;99.90;;;;;;5081829;28;20182;-80
2022/10/11 09:00:06;;;;;;;27.63;15.53;;;8.50;99.90;;;;;;5082573;28;20198;-79
2022/10/11 09:02:54;;;;;;;29.70;16.13;;;8.60;99.90;;;;;;5083441;28;20682;-79
2022/10/11 09:05:24;;;;;;;36.83;18.63;;;8.80;99.90;;;;;;5065297;28;20668;-79
2022/10/11 09:08:09;;;;;;;34.93;20.80;;;8.90;99.90;;;;;;5064882;28;20190;-79
2022/10/11 09:11:11;;;;;;;45.37;22.47;;;9.00;99.90;;;;;;5083632;28;20198;-79
2022/10/11 09:13:55;;;;;;;40.40;23.23;;;9.10;99.90;;;;;;5084459;28;20159;-79
2022/10/11 09:16:38;;;;;;;52.13;23.80;;;9.30;99.90;;;;;;5092496;28;20175;-79
2022/10/11 09:19:16;;;;;;;49.63;25.50;;;9.40;99.90;;;;;;5075949;28;20229;-79
2022/10/11 09:22:03;;;;;;;45.93;25.47;;;9.50;99.90;;;;;;5090473;28;20167;-79
2022/10/11 09:25:00;;;;;;;55.80;26.00;;;9.70;99.90;;;;;;5065452;28;20178;-79
2022/10/11 09:27:49;;;;;;;47.07;24.80;;;9.80;99.90;;;;;;5066723;28;20179;-79
2022/10/11 09:30:17;;;;;;;56.97;27.50;;;10.00;99.90;;;;;;5065864;28;20206;-79
2022/10/11 09:32:46;;;;;;;51.70;25.93;;;10.10;99.90;;;;;;5064625;28;20176;-80
2022/10/11 09:35:15;;;;;;;38.23;24.03;;;10.20;99.90;;;;;;5067964;28;20182;-79
2022/10/11 09:37:59;;;;;;;42.47;23.67;;;10.30;99.90;;;;;;5080852;28;20167;-79
2022/10/11 09:40:43;;;;;;;35.33;21.33;;;10.50;99.90;;;;;;5096409;28;20194;-79
2022/10/11 09:43:08;;;;;;;42.97;21.00;;;10.50;99.90;;;;;;5085310;28;20175;-79
2022/10/11 09:45:34;;;;;;;30.23;19.87;;;10.50;99.90;;;;;;5060199;28;20186;-79
2022/10/11 09:48:02;;;;;;;41.37;23.43;;;10.60;99.90;;;;;;5077980;28;20659;-79
2022/10/11 09:50:30;;;;;;;35.90;21.90;;;10.70;99.90;;;;;;5059880;28;20198;-80
2022/10/11 09:52:59;;;;;;;35.63;20.30;;;10.80;99.90;;;;;;5058423;28;20740;-79
2022/10/11 09:55:48;;;;;;;29.77;19.30;;;10.90;99.90;;;;;;5060322;28;20175;-79
2022/10/11 09:58:32;;;;;;;34.37;21.10;;;10.90;99.90;;;;;;5078683;28;20221;-79
2022/10/11 10:01:07;;;;;;;35.20;19.27;;;10.90;99.90;;;;;;5078554;28;20245;-79
2022/10/11 10:03:34;;;;;;;34.27;20.07;;;11.00;99.90;;;;;;5077473;28;20175;-79
2022/10/11 10:06:06;;;;;;;29.27;18.53;;;11.00;99.90;;;;;;5078363;28;20233;-79
2022/10/11 10:08:33;;;;;;;40.37;21.33;;;11.10;99.90;;;;;;5078711;28;20197;-79
2022/10/11 10:11:03;;;;;;;38.43;20.47;;;11.20;99.90;;;;;;5079364;28;20274;-79
2022/10/11 10:13:38;;;;;;;38.80;21.40;;;11.20;99.90;;;;;;5060016;28;20179;-79
2022/10/11 10:16:04;;;;;;;37.57;22.73;;;11.30;99.90;;;;;;5060022;28;20213;-80
2022/10/11 10:18:49;;;;;;;31.37;19.60;;;11.30;99.90;;;;;;5059008;28;20206;-79
2022/10/11 10:21:15;;;;;;;34.67;18.93;;;11.40;99.90;;;;;;5057013;28;20260;-79
2022/10/11 10:23:41;;;;;;;38.83;19.03;;;11.50;99.90;;;;;;5075423;28;20175;-79
2022/10/11 10:26:16;;;;;;;43.50;20.73;;;11.50;99.90;;;;;;5077019;28;20246;-79
2022/10/11 10:29:08;;;;;;;31.60;18.57;;;11.50;99.90;;;;;;5058373;28;20162;-80
2022/10/11 10:31:51;;;;;;;34.37;20.30;;;11.60;99.90;;;;;;5075322;28;20203;-79
2022/10/11 10:34:34;;;;;;;36.97;19.93;;;11.60;99.90;;;;;;5075908;28;20159;-79
2022/10/11 10:37:07;;;;;;;30.67;17.43;;;11.70;99.90;;;;;;5076630;28;20584;-78
2022/10/11 10:39:45;;;;;;;36.93;18.47;;;11.70;99.90;;;;;;5058099;28;20241;-81
2022/10/11 10:42:17;;;;;;;35.40;18.03;;;11.80;99.90;;;;;;5076718;28;20155;-78
2022/10/11 10:44:45;;;;;;;34.00;17.50;;;11.90;99.90;;;;;;5075276;28;20163;-78
2022/10/11 10:47:48;;;;;;;33.20;17.30;;;11.90;99.90;;;;;;5075585;28;20167;-79
2022/10/11 10:50:17;;;;;;;25.87;15.07;;;12.00;99.90;;;;;;5058019;28;20259;-79
2022/10/11 10:53:01;;;;;;;30.93;17.03;;;12.10;99.90;;;;;;5075929;28;20167;-79
2022/10/11 10:55:38;;;;;;;27.57;14.37;;;12.10;99.90;;;;;;5076321;28;20210;-79
2022/10/11 10:58:09;;;;;;;28.50;14.50;;;12.10;99.90;;;;;;5058109;28;20304;-79
2022/10/11 11:00:45;;;;;;;27.77;13.50;;;12.20;99.90;;;;;;5074936;28;20769;-79
2022/10/11 11:03:13;;;;;;;25.30;14.13;;;12.30;99.90;;;;;;5057500;28;20215;-79
2022/10/11 11:06:01;;;;;;;23.03;14.87;;;12.40;99.90;;;;;;5075812;28;20178;-79
2022/10/11 11:08:55;;;;;;;21.60;13.57;;;12.50;99.90;;;;;;5075998;28;20162;-79
2022/10/11 11:11:52;;;;;;;22.30;13.17;;;12.60;99.90;;;;;;5073999;28;20256;-79
2022/10/11 11:14:39;;;;;;;30.30;13.73;;;12.70;99.90;;;;;;5075366;28;20579;-78
2022/10/11 11:17:25;;;;;;;25.57;12.50;;;12.80;99.90;;;;;;5075541;28;20257;-79
2022/10/11 11:19:59;;;;;;;23.40;12.57;;;12.90;99.90;;;;;;5074120;28;20618;-81
2022/10/11 11:22:46;;;;;;;22.53;12.63;;;12.90;99.90;;;;;;5055811;28;20159;-79
2022/10/11 11:25:23;;;;;;;23.53;11.87;;;13.00;1.00;;;;;;5055946;28;20160;-79
2022/10/11 11:28:01;;;;;;;24.60;13.43;;;13.00;99.90;;;;;;5055324;28;20163;-79
2022/10/11 11:30:48;;;;;;;25.77;10.97;;;13.00;99.90;;;;;;5046881;28;20195;-79
2022/10/11 11:33:32;;;;;;;23.03;11.23;;;13.00;1.00;;;;;;5058587;28;20187;-79
2022/10/11 11:36:03;;;;;;;18.97;10.97;;;13.10;36.70;;;;;;5079604;28;20159;-79
2022/10/11 11:38:37;;;;;;;19.93;10.93;;;13.20;99.90;;;;;;5080106;28;20669;-79
2022/10/11 11:41:09;;;;;;;26.60;11.37;;;13.20;1.00;;;;;;5080695;28;20293;-78
2022/10/11 11:43:50;;;;;;;19.03;11.10;;;13.20;1.00;;;;;;5072178;28;20195;-79
2022/10/11 11:46:23;;;;;;;19.70;10.57;;;13.30;99.90;;;;;;5074891;28;20258;-80
2022/10/11 11:48:51;;;;;;;19.23;10.17;;;13.40;99.90;;;;;;5057404;28;20167;-79
2022/10/11 11:51:22;;;;;;;14.53;7.77;;;13.50;1.00;;;;;;5057975;28;20796;-79
2022/10/11 11:54:10;;;;;;;17.93;8.40;;;13.60;99.90;;;;;;5076211;28;20232;-77
2022/10/11 11:57:01;;;;;;;21.97;10.27;;;13.60;99.90;;;;;;5077677;28;20195;-78
2022/10/11 11:59:32;;;;;;;18.23;10.23;;;13.70;1.00;;;;;;5077539;28;20273;-78
2022/10/11 12:02:17;;;;;;;22.63;11.93;;;13.70;99.90;;;;;;5077048;28;20171;-79
2022/10/11 12:04:44;;;;;;;23.07;10.93;;;13.80;1.00;;;;;;5077548;28;20179;-80
2022/10/11 12:07:14;;;;;;;23.80;12.00;;;13.90;99.90;;;;;;5079654;28;20190;-79
2022/10/11 12:09:43;;;;;;;21.20;10.57;;;14.00;96.00;;;;;;5059111;28;20340;-76
2022/10/11 12:12:36;;;;;;;25.43;10.60;;;14.10;99.90;;;;;;5077129;28;20183;-77
2022/10/11 12:15:19;;;;;;;23.57;11.00;;;14.20;1.00;;;;;;5057456;28;20182;-77
2022/10/11 12:17:57;;;;;;;20.50;9.83;;;14.40;1.00;;;;;;5059078;28;20166;-77
2022/10/11 12:20:30;;;;;;;23.60;10.43;;;14.50;99.90;;;;;;5077065;28;20190;-77
2022/10/11 12:23:04;;;;;;;20.70;12.33;;;14.60;1.00;;;;;;5075957;28;20202;-80
2022/10/11 12:25:37;;;;;;;22.63;11.50;;;14.80;1.00;;;;;;5074465;28;20186;-78
2022/10/11 12:28:37;;;;;;;26.57;11.47;;;14.90;1.00;;;;;;5057969;28;20575;-77
2022/10/11 12:31:15;;;;;;;25.57;11.67;;;15.00;1.00;;;;;;5076246;28;20190;-77
2022/10/11 12:33:41;;;;;;;21.27;11.20;;;14.90;99.90;;;;;;5057754;28;20315;-77
2022/10/11 12:36:31;;;;;;;22.10;10.63;;;14.90;47.20;;;;;;5057789;28;20179;-77
2022/10/11 12:39:42;;;;;;;17.83;10.03;;;14.90;1.00;;;;;;5075962;28;20209;-78
2022/10/11 12:42:23;;;;;;;18.17;9.87;;;15.00;1.00;;;;;;5040161;28;20194;-78
2022/10/11 12:45:12;;;;;;;26.57;10.43;;;15.10;99.90;;;;;;5074748;28;20208;-77
2022/10/11 12:47:59;;;;;;;22.63;10.40;;;15.30;1.00;;;;;;5045951;28;20198;-78
2022/10/11 12:50:36;;;;;;;24.13;10.77;;;15.10;1.00;;;;;;5058906;28;20199;-77
2022/10/11 12:53:11;;;;;;;20.00;10.43;;;15.10;1.00;;;;;;5075580;28;20567;-77
2022/10/11 12:56:00;;;;;;;16.37;8.97;;;15.00;99.90;;;;;;5078013;28;20174;-78
2022/10/11 12:58:37;;;;;;;15.07;7.90;;;15.00;1.00;;;;;;5076520;28;20573;-78
2022/10/11 13:01:02;;;;;;;12.50;6.03;;;14.90;1.00;;;;;;5076906;28;20194;-78
2022/10/11 13:04:03;;;;;;;14.67;6.63;;;14.90;1.00;;;;;;5058217;28;20258;-78
2022/10/11 13:06:32;;;;;;;17.37;6.67;;;14.90;57.70;;;;;;5046265;28;20190;-80